createdAt,value
2022-11-15T00:00:10.784Z,11.18
2022-11-15T00:01:10.817Z,11.24
2022-11-15T00:02:10.873Z,11.16
2022-11-15T00:03:10.863Z,11.18
2022-11-15T00:04:10.901Z,11.24
2022-11-15T00:05:10.914Z,11.23
2022-11-15T00:06:10.940Z,11.23
2022-11-15T00:07:18.034Z,11.23
2022-11-15T00:08:11.040Z,11.20
2022-11-15T00:09:11.040Z,11.23
2022-11-15T00:10:11.043Z,11.15
2022-11-15T00:11:11.070Z,11.21
2022-11-15T00:12:11.095Z,11.23
2022-11-15T00:13:11.124Z,11.23
2022-11-15T00:14:11.146Z,11.30
2022-11-15T00:15:11.174Z,11.30
2022-11-15T00:16:11.199Z,11.35
2022-11-15T00:17:11.226Z,11.39
2022-11-15T00:18:11.251Z,11.30
2022-11-15T00:19:11.276Z,11.35
2022-11-15T00:20:11.300Z,11.34
2022-11-15T00:21:11.330Z,11.39
2022-11-15T00:22:11.353Z,11.39
2022-11-15T00:23:11.379Z,11.53
2022-11-15T00:24:11.403Z,11.51
2022-11-15T00:25:11.451Z,11.52
2022-11-15T00:26:11.455Z,11.43
2022-11-15T00:27:11.482Z,11.59
2022-11-15T00:28:11.519Z,11.59
2022-11-15T00:29:11.536Z,11.60
2022-11-15T00:30:11.559Z,11.61
2022-11-15T00:31:11.585Z,11.63
2022-11-15T00:32:11.610Z,11.66
2022-11-15T00:33:11.638Z,11.68
2022-11-15T00:34:11.662Z,11.68
2022-11-15T00:35:11.689Z,11.67
2022-11-15T00:36:11.723Z,11.67
2022-11-15T00:37:11.745Z,11.63
2022-11-15T00:38:11.766Z,11.67
2022-11-15T00:39:11.794Z,11.66
2022-11-15T00:40:11.819Z,11.61
2022-11-15T00:41:11.865Z,11.57
2022-11-15T00:42:11.873Z,11.63
2022-11-15T00:43:11.899Z,11.70
2022-11-15T00:44:11.925Z,11.70
2022-11-15T00:45:11.952Z,11.63
2022-11-15T00:46:11.978Z,11.67
2022-11-15T00:47:12.004Z,11.70
2022-11-15T00:48:12.030Z,11.75
2022-11-15T00:49:12.059Z,11.71
2022-11-15T00:52:12.135Z,11.82
2022-11-15T00:53:12.162Z,11.82
2022-11-15T00:54:12.391Z,11.84
2022-11-15T00:56:13.459Z,11.94
2022-11-15T00:57:12.286Z,11.95
2022-11-15T00:59:13.555Z,11.91
2022-11-15T01:00:12.345Z,11.91
2022-11-15T01:01:12.423Z,11.97
2022-11-15T01:02:12.601Z,11.91
2022-11-15T01:03:12.627Z,11.91
2022-11-15T01:04:12.454Z,11.95
2022-11-15T01:09:13.795Z,11.94
2022-11-15T01:11:12.639Z,12.03
2022-11-15T01:12:12.660Z,12.00
2022-11-15T01:13:12.707Z,11.98
2022-11-15T01:14:12.717Z,12.00
2022-11-15T01:15:14.160Z,12.05
2022-11-15T01:18:13.023Z,12.03
2022-11-15T01:20:12.876Z,12.03
2022-11-15T01:24:13.182Z,12.10
2022-11-15T01:25:13.010Z,12.07
2022-11-15T01:26:16.071Z,12.11
2022-11-15T01:29:13.136Z,12.10
2022-11-15T01:30:13.342Z,12.13
2022-11-15T01:32:13.193Z,12.05
2022-11-15T01:33:13.218Z,12.10
2022-11-15T01:34:13.248Z,12.19
2022-11-15T01:35:13.473Z,12.19
2022-11-15T01:38:13.354Z,12.19
2022-11-15T01:39:13.581Z,12.25
2022-11-15T01:41:13.434Z,12.23
2022-11-15T01:42:13.460Z,12.28
2022-11-15T01:43:13.487Z,12.19
2022-11-15T01:45:13.564Z,12.25
2022-11-15T01:46:13.566Z,12.26
2022-11-15T01:47:13.594Z,12.25
2022-11-15T01:48:14.833Z,12.26
2022-11-15T01:49:13.646Z,12.29
2022-11-15T01:50:13.882Z,12.29
2022-11-15T01:51:13.902Z,12.23
2022-11-15T01:52:13.728Z,12.26
2022-11-15T01:54:13.781Z,12.25
2022-11-15T01:55:13.809Z,12.34
2022-11-15T01:56:13.834Z,12.29
2022-11-15T01:57:13.864Z,12.20
2022-11-15T01:58:13.888Z,12.33
2022-11-15T01:59:13.920Z,12.26
2022-11-15T02:00:13.942Z,12.44
2022-11-15T02:01:14.073Z,12.34
2022-11-15T02:02:13.998Z,12.40
2022-11-15T02:03:14.023Z,12.41
2022-11-15T02:04:14.050Z,12.40
2022-11-15T02:05:14.077Z,12.41
2022-11-15T02:06:14.107Z,12.41
2022-11-15T02:07:14.297Z,12.44
2022-11-15T02:08:14.156Z,12.41
2022-11-15T02:09:14.189Z,12.45
2022-11-15T02:10:14.209Z,12.45
2022-11-15T02:11:14.236Z,12.40
2022-11-15T02:12:14.262Z,12.44
2022-11-15T02:13:14.290Z,12.38
2022-11-15T02:14:14.315Z,12.43
2022-11-15T02:15:14.345Z,12.41
2022-11-15T02:16:14.367Z,12.33
2022-11-15T02:17:14.414Z,12.45
2022-11-15T02:18:14.422Z,12.45
2022-11-15T02:19:14.448Z,12.37
2022-11-15T02:20:14.475Z,12.38
2022-11-15T02:21:14.503Z,12.44
2022-11-15T02:22:14.532Z,12.43
2022-11-15T02:23:14.558Z,12.51
2022-11-15T02:24:14.581Z,12.47
2022-11-15T02:25:14.697Z,12.37
2022-11-15T02:26:14.634Z,12.44
2022-11-15T02:27:14.662Z,12.43
2022-11-15T02:28:14.693Z,12.36
2022-11-15T02:29:14.715Z,12.38
2022-11-15T02:30:14.742Z,12.37
2022-11-15T02:31:14.769Z,12.45
2022-11-15T02:32:14.795Z,12.47
2022-11-15T02:33:14.844Z,12.37
2022-11-15T02:34:14.848Z,12.37
2022-11-15T02:35:14.876Z,12.47
2022-11-15T02:36:14.900Z,12.52
2022-11-15T02:37:14.932Z,12.45
2022-11-15T02:38:14.954Z,12.45
2022-11-15T02:39:14.983Z,12.47
2022-11-15T02:40:15.007Z,12.52
2022-11-15T02:41:15.036Z,12.52
2022-11-15T02:42:15.062Z,12.53
2022-11-15T02:43:15.090Z,12.55
2022-11-15T02:44:15.116Z,12.45
2022-11-15T02:45:15.143Z,12.45
2022-11-15T02:46:15.169Z,12.47
2022-11-15T02:47:15.200Z,12.51
2022-11-15T02:48:15.221Z,12.48
2022-11-15T02:49:15.268Z,12.45
2022-11-15T02:50:15.274Z,12.45
2022-11-15T02:51:15.302Z,12.61
2022-11-15T02:52:15.327Z,12.55
2022-11-15T02:53:15.355Z,12.53
2022-11-15T02:54:15.380Z,12.52
2022-11-15T02:55:15.409Z,12.56
2022-11-15T02:56:15.434Z,12.66
2022-11-15T02:57:15.462Z,12.61
2022-11-15T02:58:15.485Z,12.65
2022-11-15T02:59:15.515Z,12.76
2022-11-15T03:00:15.543Z,12.69
2022-11-15T03:01:15.609Z,12.69
2022-11-15T03:02:15.592Z,12.74
2022-11-15T03:03:15.620Z,12.71
2022-11-15T03:04:15.645Z,12.76
2022-11-15T03:05:15.695Z,12.78
2022-11-15T03:06:15.700Z,12.70
2022-11-15T03:07:15.833Z,12.80
2022-11-15T03:08:15.758Z,12.77
2022-11-15T03:09:15.782Z,12.76
2022-11-15T03:10:15.808Z,12.96
2022-11-15T03:11:15.833Z,12.89
2022-11-15T03:12:15.858Z,12.91
2022-11-15T03:13:15.886Z,12.89
2022-11-15T03:14:15.913Z,12.76
2022-11-15T03:15:15.940Z,12.91
2022-11-15T03:16:15.965Z,12.88
2022-11-15T03:17:15.994Z,12.88
2022-11-15T03:18:16.020Z,12.81
2022-11-15T03:19:16.045Z,12.83
2022-11-15T03:20:16.069Z,12.81
2022-11-15T03:21:16.120Z,12.88
2022-11-15T03:22:16.125Z,12.96
2022-11-15T03:23:16.151Z,12.96
2022-11-15T03:24:16.177Z,12.83
2022-11-15T03:25:16.206Z,12.96
2022-11-15T03:26:16.231Z,12.94
2022-11-15T03:27:16.258Z,13.09
2022-11-15T03:28:16.284Z,12.95
2022-11-15T03:29:16.313Z,12.94
2022-11-15T03:30:16.337Z,12.91
2022-11-15T03:31:16.363Z,12.95
2022-11-15T03:32:16.390Z,12.95
2022-11-15T03:33:16.567Z,13.01
2022-11-15T03:34:16.444Z,12.99
2022-11-15T03:35:16.472Z,12.96
2022-11-15T03:36:16.496Z,12.95
2022-11-15T03:37:16.544Z,12.98
2022-11-15T03:38:16.580Z,12.98
2022-11-15T03:39:20.625Z,12.89
2022-11-15T03:40:16.603Z,12.99
2022-11-15T03:41:16.629Z,12.96
2022-11-15T03:42:16.657Z,12.95
2022-11-15T03:43:16.683Z,12.96
2022-11-15T03:44:16.712Z,12.92
2022-11-15T03:45:16.737Z,12.88
2022-11-15T03:46:16.765Z,12.96
2022-11-15T03:47:16.788Z,12.91
2022-11-15T03:48:16.818Z,12.95
2022-11-15T03:49:16.842Z,12.96
2022-11-15T03:50:16.871Z,12.91
2022-11-15T03:51:16.896Z,12.98
2022-11-15T03:52:16.926Z,12.92
2022-11-15T03:53:16.968Z,12.96
2022-11-15T03:54:16.978Z,12.96
2022-11-15T03:55:17.003Z,12.96
2022-11-15T03:56:17.033Z,12.95
2022-11-15T03:57:17.056Z,12.91
2022-11-15T03:58:17.086Z,12.98
2022-11-15T03:59:17.113Z,12.99
2022-11-15T04:00:17.137Z,13.01
2022-11-15T04:01:17.222Z,12.95
2022-11-15T04:02:17.191Z,12.95
2022-11-15T04:03:17.222Z,12.95
2022-11-15T04:04:17.261Z,13.06
2022-11-15T04:05:17.271Z,12.96
2022-11-15T04:06:17.299Z,13.03
2022-11-15T04:07:17.405Z,13.02
2022-11-15T04:08:17.356Z,13.07
2022-11-15T04:09:17.397Z,13.07
2022-11-15T04:10:17.406Z,13.13
2022-11-15T04:11:17.431Z,13.06
2022-11-15T04:12:17.459Z,13.03
2022-11-15T04:13:17.485Z,13.10
2022-11-15T04:14:17.513Z,13.07
2022-11-15T04:15:17.539Z,13.07
2022-11-15T04:16:17.567Z,13.13
2022-11-15T04:17:17.592Z,13.10
2022-11-15T04:18:17.623Z,13.10
2022-11-15T04:19:17.646Z,13.09
2022-11-15T04:20:17.681Z,13.11
2022-11-15T04:21:17.699Z,13.09
2022-11-15T04:22:17.726Z,13.14
2022-11-15T04:23:17.750Z,13.16
2022-11-15T04:24:17.780Z,13.09
2022-11-15T04:25:22.894Z,13.10
2022-11-15T04:26:17.832Z,13.19
2022-11-15T04:27:17.859Z,13.11
2022-11-15T04:28:17.890Z,13.13
2022-11-15T04:29:17.913Z,13.10
2022-11-15T04:30:17.962Z,13.10
2022-11-15T04:31:17.965Z,13.20
2022-11-15T04:32:17.997Z,13.17
2022-11-15T04:33:18.020Z,13.17
2022-11-15T04:34:18.049Z,13.19
2022-11-15T04:35:18.073Z,13.16
2022-11-15T04:36:18.102Z,13.21
2022-11-15T04:37:18.126Z,13.27
2022-11-15T04:38:18.156Z,13.19
2022-11-15T04:39:18.180Z,13.27
2022-11-15T04:40:18.209Z,13.25
2022-11-15T04:41:18.254Z,13.20
2022-11-15T04:42:18.262Z,13.17
2022-11-15T04:43:18.287Z,13.13
2022-11-15T04:44:18.316Z,13.19
2022-11-15T04:45:18.341Z,13.16
2022-11-15T04:46:18.370Z,13.21
2022-11-15T04:47:18.394Z,13.19
2022-11-15T04:48:18.423Z,13.21
2022-11-15T04:49:18.450Z,13.20
2022-11-15T04:50:18.478Z,13.21
2022-11-15T04:51:18.501Z,13.19
2022-11-15T04:52:18.529Z,13.17
2022-11-15T04:53:18.553Z,13.19
2022-11-15T04:54:18.585Z,13.19
2022-11-15T04:55:18.608Z,13.19
2022-11-15T04:56:18.636Z,13.24
2022-11-15T04:57:18.680Z,13.24
2022-11-15T04:58:18.689Z,13.21
2022-11-15T04:59:18.716Z,13.19
2022-11-15T05:00:18.744Z,13.14
2022-11-15T05:01:18.910Z,13.17
2022-11-15T05:02:18.797Z,13.11
2022-11-15T05:03:18.820Z,13.20
2022-11-15T05:04:18.851Z,13.16
2022-11-15T05:05:18.875Z,13.20
2022-11-15T05:06:18.904Z,13.19
2022-11-15T05:07:18.987Z,13.17
2022-11-15T05:08:18.960Z,13.17
2022-11-15T05:09:18.982Z,13.07
2022-11-15T05:10:19.011Z,13.07
2022-11-15T05:11:19.085Z,13.02
2022-11-15T05:12:19.063Z,12.98
2022-11-15T05:13:19.106Z,12.99
2022-11-15T05:14:19.116Z,12.95
2022-11-15T05:15:19.141Z,12.94
2022-11-15T05:16:19.170Z,12.98
2022-11-15T05:17:19.196Z,12.96
2022-11-15T05:18:23.364Z,12.96
2022-11-15T05:19:19.248Z,12.95
2022-11-15T05:20:19.281Z,12.95
2022-11-15T05:21:19.301Z,13.10
2022-11-15T05:22:19.329Z,12.98
2022-11-15T05:23:19.357Z,13.02
2022-11-15T05:24:19.383Z,13.06
2022-11-15T05:25:19.408Z,13.02
2022-11-15T05:26:19.441Z,13.03
2022-11-15T05:27:19.462Z,13.06
2022-11-15T05:28:19.491Z,13.03
2022-11-15T05:29:19.534Z,13.07
2022-11-15T05:30:19.543Z,13.03
2022-11-15T05:31:19.570Z,13.06
2022-11-15T05:32:19.598Z,13.03
2022-11-15T05:33:19.623Z,13.10
2022-11-15T05:34:19.650Z,13.03
2022-11-15T05:35:19.674Z,12.99
2022-11-15T05:36:19.704Z,12.98
2022-11-15T05:37:19.728Z,12.89
2022-11-15T05:38:19.757Z,12.95
2022-11-15T05:39:19.783Z,12.92
2022-11-15T05:40:19.812Z,12.84
2022-11-15T05:41:19.837Z,12.86
2022-11-15T05:42:19.866Z,12.80
2022-11-15T05:43:19.889Z,12.84
2022-11-15T05:44:19.919Z,12.77
2022-11-15T05:45:26.337Z,12.73
2022-11-15T05:46:19.971Z,12.77
2022-11-15T05:47:19.996Z,12.86
2022-11-15T05:48:20.022Z,12.71
2022-11-15T05:49:20.051Z,12.76
2022-11-15T05:50:20.081Z,12.74
2022-11-15T05:51:20.102Z,12.76
2022-11-15T05:52:20.131Z,12.73
2022-11-15T05:53:20.155Z,12.66
2022-11-15T05:54:20.386Z,12.66
2022-11-15T05:55:20.208Z,12.61
2022-11-15T05:56:20.237Z,12.65
2022-11-15T05:57:20.262Z,12.63
2022-11-15T05:58:20.289Z,12.59
2022-11-15T05:59:20.313Z,12.59
2022-11-15T06:00:20.342Z,12.58
2022-11-15T06:01:20.389Z,12.53
2022-11-15T06:03:20.422Z,12.44
2022-11-15T06:04:20.447Z,12.45
2022-11-15T06:05:20.476Z,12.44
2022-11-15T06:06:20.502Z,12.33
2022-11-15T06:07:20.642Z,12.41
2022-11-15T06:08:20.554Z,12.23
2022-11-15T06:09:20.582Z,12.29
2022-11-15T06:10:20.607Z,12.29
2022-11-15T06:11:20.634Z,12.28
2022-11-15T06:12:20.659Z,12.16
2022-11-15T06:13:20.687Z,12.22
2022-11-15T06:14:20.713Z,12.23
2022-11-15T06:15:20.740Z,12.20
2022-11-15T06:16:20.765Z,12.15
2022-11-15T06:17:20.809Z,12.16
2022-11-15T06:18:20.818Z,12.13
2022-11-15T06:19:20.847Z,12.01
2022-11-15T06:20:20.874Z,12.04
2022-11-15T06:21:20.900Z,12.10
2022-11-15T06:22:20.930Z,12.22
2022-11-15T06:23:20.950Z,12.18
2022-11-15T06:24:20.977Z,12.07
2022-11-15T06:25:21.005Z,12.03
2022-11-15T06:26:21.029Z,12.08
2022-11-15T06:27:21.056Z,12.04
2022-11-15T06:28:21.080Z,12.05
2022-11-15T06:29:21.108Z,12.04
2022-11-15T06:30:21.133Z,11.94
2022-11-15T06:31:21.160Z,11.94
2022-11-15T06:32:21.185Z,11.94
2022-11-15T06:33:21.229Z,12.10
2022-11-15T06:34:21.237Z,11.95
2022-11-15T06:35:21.267Z,11.95
2022-11-15T06:36:21.289Z,11.91
2022-11-15T06:37:21.317Z,11.84
2022-11-15T06:38:21.343Z,11.98
2022-11-15T06:39:21.371Z,11.94
2022-11-15T06:40:21.399Z,11.91
2022-11-15T06:41:21.426Z,11.95
2022-11-15T06:42:21.459Z,11.91
2022-11-15T06:43:21.473Z,12.05
2022-11-15T06:44:21.500Z,11.94
2022-11-15T06:45:21.528Z,11.98
2022-11-15T06:46:21.554Z,11.97
2022-11-15T06:47:21.579Z,12.01
2022-11-15T06:48:21.602Z,11.94
2022-11-15T06:49:21.651Z,11.94
2022-11-15T06:50:21.661Z,12.05
2022-11-15T06:51:21.701Z,11.91
2022-11-15T06:52:21.712Z,11.97
2022-11-15T06:53:21.753Z,12.00
2022-11-15T06:54:21.764Z,12.01
2022-11-15T06:55:21.793Z,11.98
2022-11-15T06:56:21.810Z,11.95
2022-11-15T06:57:21.846Z,11.91
2022-11-15T06:58:21.885Z,11.95
2022-11-15T06:59:21.909Z,11.91
2022-11-15T07:00:21.952Z,11.91
2022-11-15T07:01:21.988Z,11.95
2022-11-15T07:02:21.973Z,11.97
2022-11-15T07:03:21.995Z,11.88
2022-11-15T07:04:22.019Z,11.91
2022-11-15T07:05:22.071Z,11.85
2022-11-15T07:06:22.071Z,11.85
2022-11-15T07:07:22.146Z,11.91
2022-11-15T07:08:22.128Z,11.86
2022-11-15T07:09:22.151Z,11.86
2022-11-15T07:10:22.176Z,11.89
2022-11-15T07:11:22.201Z,11.81
2022-11-15T07:12:22.226Z,11.89
2022-11-15T07:13:22.254Z,11.89
2022-11-15T07:14:22.279Z,11.84
2022-11-15T07:15:22.307Z,11.76
2022-11-15T07:16:22.332Z,11.79
2022-11-15T07:17:22.359Z,11.71
2022-11-15T07:18:22.385Z,11.76
2022-11-15T07:19:22.411Z,11.79
2022-11-15T07:20:22.435Z,11.79
2022-11-15T07:21:27.361Z,11.78
2022-11-15T07:22:22.488Z,11.75
2022-11-15T07:23:22.514Z,11.66
2022-11-15T07:24:22.539Z,11.73
2022-11-15T07:25:22.567Z,11.81
2022-11-15T07:26:22.591Z,11.68
2022-11-15T07:27:22.617Z,11.67
2022-11-15T07:28:22.642Z,11.66
2022-11-15T07:29:22.674Z,11.70
2022-11-15T07:30:22.694Z,11.76
2022-11-15T07:31:22.721Z,11.76
2022-11-15T07:32:22.745Z,11.68
2022-11-15T07:33:22.773Z,11.75
2022-11-15T07:34:22.798Z,11.75
2022-11-15T07:35:22.824Z,11.68
2022-11-15T07:36:22.851Z,11.78
2022-11-15T07:37:22.895Z,11.76
2022-11-15T07:38:22.906Z,11.73
2022-11-15T07:39:22.928Z,11.76
2022-11-15T07:40:22.952Z,11.70
2022-11-15T07:41:22.984Z,11.71
2022-11-15T07:42:23.007Z,11.78
2022-11-15T07:43:23.035Z,11.79
2022-11-15T07:44:23.058Z,11.73
2022-11-15T07:45:23.090Z,11.82
2022-11-15T07:46:23.111Z,11.82
2022-11-15T07:47:23.137Z,11.84
2022-11-15T07:48:23.162Z,11.67
2022-11-15T07:49:23.191Z,11.73
2022-11-15T07:50:23.217Z,11.82
2022-11-15T07:51:23.241Z,11.86
2022-11-15T07:52:23.268Z,11.88
2022-11-15T07:53:23.314Z,11.88
2022-11-15T07:54:23.320Z,11.86
2022-11-15T07:55:23.348Z,11.89
2022-11-15T07:56:23.372Z,11.85
2022-11-15T07:57:23.399Z,11.94
2022-11-15T07:58:23.426Z,11.94
2022-11-15T07:59:23.449Z,12.04
2022-11-15T08:00:23.479Z,12.10
2022-11-15T08:01:23.709Z,12.05
2022-11-15T08:02:29.061Z,12.13
2022-11-15T08:03:23.554Z,12.11
2022-11-15T08:04:23.584Z,12.11
2022-11-15T08:05:23.610Z,12.22
2022-11-15T08:06:23.635Z,12.28
2022-11-15T08:07:23.833Z,12.28
2022-11-15T08:08:23.686Z,12.22
2022-11-15T08:09:23.732Z,12.31
2022-11-15T08:10:23.740Z,12.29
2022-11-15T08:11:23.765Z,12.28
2022-11-15T08:12:23.921Z,12.37
2022-11-15T08:13:23.817Z,12.44
2022-11-15T08:14:23.847Z,12.38
2022-11-15T08:15:23.868Z,12.47
2022-11-15T08:16:23.898Z,12.41
2022-11-15T08:17:23.921Z,12.48
2022-11-15T08:18:23.952Z,12.43
2022-11-15T08:19:23.973Z,12.44
2022-11-15T08:20:24.002Z,12.43
2022-11-15T08:21:24.027Z,12.44
2022-11-15T08:22:24.056Z,12.48
2022-11-15T08:23:24.081Z,12.47
2022-11-15T08:24:24.107Z,12.47
2022-11-15T08:25:24.162Z,12.45
2022-11-15T08:26:24.161Z,12.52
2022-11-15T08:27:24.215Z,12.59
2022-11-15T08:28:24.214Z,12.61
2022-11-15T08:29:24.237Z,12.62
2022-11-15T08:30:24.270Z,12.63
2022-11-15T08:31:24.290Z,12.61
2022-11-15T08:32:24.318Z,12.61
2022-11-15T08:33:24.343Z,12.51
2022-11-15T08:34:24.372Z,12.66
2022-11-15T08:35:28.820Z,12.59
2022-11-15T08:36:24.424Z,12.69
2022-11-15T08:37:24.451Z,12.66
2022-11-15T08:38:24.479Z,12.63
2022-11-15T08:39:24.501Z,12.66
2022-11-15T08:40:24.581Z,12.80
2022-11-15T08:41:24.573Z,12.71
2022-11-15T08:42:24.584Z,12.80
2022-11-15T08:43:24.610Z,12.78
2022-11-15T08:44:24.635Z,12.76
2022-11-15T08:45:24.659Z,12.88
2022-11-15T08:46:24.688Z,12.89
2022-11-15T08:47:24.713Z,12.91
2022-11-15T08:48:24.743Z,12.91
2022-11-15T08:49:24.766Z,12.92
2022-11-15T08:50:24.886Z,12.89
2022-11-15T08:51:24.822Z,12.83
2022-11-15T08:52:24.847Z,12.95
2022-11-15T08:53:24.875Z,12.92
2022-11-15T08:54:24.909Z,12.94
2022-11-15T08:55:25.187Z,12.96
2022-11-15T08:56:24.953Z,12.92
2022-11-15T08:57:25.003Z,12.98
2022-11-15T08:58:25.009Z,13.02
2022-11-15T08:59:25.033Z,13.09
2022-11-15T09:00:25.060Z,13.14
2022-11-15T09:01:25.194Z,13.17
2022-11-15T09:02:25.116Z,13.17
2022-11-15T09:03:25.141Z,13.17
2022-11-15T09:04:25.170Z,13.25
2022-11-15T09:05:25.198Z,13.29
2022-11-15T09:06:25.225Z,13.35
2022-11-15T09:07:25.379Z,13.35
2022-11-15T09:08:51.876Z,13.45
2022-11-15T09:09:25.302Z,13.37
2022-11-15T09:10:25.331Z,13.48
2022-11-15T09:11:25.355Z,13.47
2022-11-15T09:12:25.386Z,13.53
2022-11-15T09:13:25.432Z,13.48
2022-11-15T09:14:25.440Z,13.55
2022-11-15T09:15:25.463Z,13.63
2022-11-15T09:16:25.512Z,13.60
2022-11-15T09:17:25.533Z,13.58
2022-11-15T09:18:25.547Z,13.60
2022-11-15T09:19:25.572Z,13.63
2022-11-15T09:20:25.605Z,13.65
2022-11-15T09:21:25.630Z,13.55
2022-11-15T09:22:25.665Z,13.58
2022-11-15T09:23:25.680Z,13.70
2022-11-15T09:24:25.710Z,13.73
2022-11-15T09:25:25.734Z,13.66
2022-11-15T09:26:25.765Z,13.65
2022-11-15T09:27:25.789Z,13.70
2022-11-15T09:28:25.822Z,13.78
2022-11-15T09:29:25.861Z,13.81
2022-11-15T09:30:25.895Z,13.79
2022-11-15T09:31:25.898Z,13.76
2022-11-15T09:32:25.930Z,13.86
2022-11-15T09:33:25.951Z,13.86
2022-11-15T09:34:25.981Z,13.97
2022-11-15T09:35:26.008Z,13.91
2022-11-15T09:36:26.184Z,13.94
2022-11-15T09:37:26.061Z,13.94
2022-11-15T09:38:26.089Z,13.97
2022-11-15T09:39:26.115Z,13.99
2022-11-15T09:40:26.144Z,14.08
2022-11-15T09:41:26.173Z,14.02
2022-11-15T09:42:26.305Z,14.08
2022-11-15T09:43:26.223Z,13.97
2022-11-15T09:44:26.255Z,14.08
2022-11-15T09:45:26.396Z,14.09
2022-11-15T09:46:26.307Z,14.03
2022-11-15T09:47:26.332Z,14.03
2022-11-15T09:48:26.360Z,14.03
2022-11-15T09:49:26.388Z,14.08
2022-11-15T09:50:26.415Z,14.03
2022-11-15T09:51:26.443Z,14.01
2022-11-15T09:52:26.469Z,14.08
2022-11-15T09:53:50.697Z,14.06
2022-11-15T09:54:54.270Z,14.06
2022-11-15T09:55:26.552Z,14.11
2022-11-15T09:56:26.580Z,14.15
2022-11-15T09:57:26.609Z,14.23
2022-11-15T09:58:26.640Z,14.12
2022-11-15T09:59:26.661Z,14.12
2022-11-15T10:01:26.840Z,14.15
2022-11-15T10:02:26.772Z,14.16
2022-11-15T10:03:26.771Z,14.15
2022-11-15T10:04:26.798Z,14.23
2022-11-15T10:05:26.830Z,14.23
2022-11-15T10:06:26.905Z,14.21
2022-11-15T10:07:26.937Z,14.23
2022-11-15T10:08:26.907Z,14.16
2022-11-15T10:09:26.936Z,14.20
2022-11-15T10:10:26.963Z,14.28
2022-11-15T10:11:42.495Z,14.28
2022-11-15T10:12:27.018Z,14.30
2022-11-15T10:13:27.043Z,14.28
2022-11-15T10:14:27.076Z,14.38
2022-11-15T10:15:27.099Z,14.46
2022-11-15T10:16:27.131Z,14.39
2022-11-15T10:17:27.179Z,14.36
2022-11-15T10:18:27.181Z,14.45
2022-11-15T10:19:27.208Z,14.48
2022-11-15T10:20:27.237Z,14.44
2022-11-15T10:21:27.263Z,14.52
2022-11-15T10:22:27.294Z,14.49
2022-11-15T10:23:27.318Z,14.45
2022-11-15T10:24:27.346Z,14.52
2022-11-15T10:25:27.373Z,14.57
2022-11-15T10:26:27.402Z,14.59
2022-11-15T10:27:27.427Z,14.64
2022-11-15T10:28:27.456Z,14.69
2022-11-15T10:29:27.673Z,14.69
2022-11-15T10:30:27.513Z,14.74
2022-11-15T10:31:27.536Z,14.67
2022-11-15T10:32:27.566Z,14.75
2022-11-15T10:33:27.611Z,14.70
2022-11-15T10:34:27.629Z,14.63
2022-11-15T10:35:27.647Z,14.63
2022-11-15T10:36:27.676Z,14.63
2022-11-15T10:37:27.720Z,14.61
2022-11-15T10:38:27.731Z,14.60
2022-11-15T10:39:27.757Z,14.61
2022-11-15T10:40:27.787Z,14.63
2022-11-15T10:41:27.811Z,14.63
2022-11-15T10:42:27.840Z,14.60
2022-11-15T10:43:27.877Z,14.64
2022-11-15T10:44:27.895Z,14.74
2022-11-15T10:45:27.924Z,14.67
2022-11-15T10:46:56.660Z,14.69
2022-11-15T10:47:27.978Z,14.67
2022-11-15T10:48:28.019Z,14.74
2022-11-15T10:49:28.051Z,14.66
2022-11-15T10:50:28.060Z,14.74
2022-11-15T10:51:28.087Z,14.74
2022-11-15T10:52:28.266Z,14.70
2022-11-15T10:53:28.143Z,14.67
2022-11-15T10:54:28.169Z,14.80
2022-11-15T10:55:28.195Z,14.67
2022-11-15T10:56:28.227Z,14.67
2022-11-15T10:57:28.259Z,14.70
2022-11-15T10:58:28.283Z,14.64
2022-11-15T10:59:28.320Z,14.79
2022-11-15T11:00:28.334Z,14.77
2022-11-15T11:01:28.418Z,14.75
2022-11-15T11:02:28.391Z,14.77
2022-11-15T11:03:28.414Z,14.79
2022-11-15T11:04:28.441Z,14.77
2022-11-15T11:05:28.510Z,14.82
2022-11-15T11:06:28.496Z,14.93
2022-11-15T11:07:28.617Z,14.86
2022-11-15T11:08:28.749Z,14.87
2022-11-15T11:09:28.579Z,14.94
2022-11-15T11:10:50.277Z,14.90
2022-11-15T11:11:28.634Z,14.90
2022-11-15T11:12:28.663Z,14.89
2022-11-15T11:13:28.688Z,14.89
2022-11-15T11:14:28.726Z,14.87
2022-11-15T11:15:28.744Z,14.90
2022-11-15T11:16:28.775Z,14.95
2022-11-15T11:17:28.798Z,14.90
2022-11-15T11:18:29.044Z,14.89
2022-11-15T11:19:28.859Z,14.80
2022-11-15T11:20:28.881Z,14.93
2022-11-15T11:21:31.998Z,14.98
2022-11-15T11:22:28.938Z,14.87
2022-11-15T11:23:29.170Z,14.87
2022-11-15T11:24:28.991Z,14.85
2022-11-15T11:25:29.018Z,14.89
2022-11-15T11:26:29.047Z,15.00
2022-11-15T11:27:29.074Z,14.97
2022-11-15T11:28:29.450Z,15.04
2022-11-15T11:29:29.129Z,15.01
2022-11-15T11:30:29.158Z,14.98
2022-11-15T11:31:29.301Z,15.02
2022-11-15T11:32:29.211Z,15.00
2022-11-15T11:33:29.240Z,15.01
2022-11-15T11:34:29.276Z,14.98
2022-11-15T11:35:29.292Z,14.98
2022-11-15T11:36:29.325Z,14.95
2022-11-15T11:37:29.371Z,14.98
2022-11-15T11:38:29.734Z,14.98
2022-11-15T11:39:29.403Z,14.97
2022-11-15T11:40:29.432Z,14.97
2022-11-15T11:41:29.456Z,14.95
2022-11-15T11:42:29.490Z,15.05
2022-11-15T11:43:29.511Z,15.00
2022-11-15T11:44:29.543Z,14.94
2022-11-15T11:45:29.567Z,15.00
2022-11-15T11:46:29.597Z,14.97
2022-11-15T11:47:29.621Z,15.01
2022-11-15T11:48:29.929Z,15.08
2022-11-15T11:49:29.678Z,15.08
2022-11-15T11:50:29.714Z,15.08
2022-11-15T11:51:29.734Z,15.05
2022-11-15T11:52:29.760Z,15.10
2022-11-15T11:53:29.804Z,15.12
2022-11-15T11:54:29.815Z,15.04
2022-11-15T11:55:29.845Z,14.97
2022-11-15T11:56:29.871Z,15.05
2022-11-15T11:57:29.896Z,15.18
2022-11-15T11:58:30.267Z,15.16
2022-11-15T11:59:29.952Z,15.12
2022-11-15T12:00:29.980Z,15.18
2022-11-15T12:01:30.010Z,15.13
2022-11-15T12:02:30.169Z,15.04
2022-11-15T12:03:30.061Z,15.08
2022-11-15T12:04:30.095Z,15.08
2022-11-15T12:05:30.116Z,15.18
2022-11-15T12:06:30.146Z,15.12
2022-11-15T12:07:30.203Z,15.08
2022-11-15T12:08:30.718Z,15.13
2022-11-15T12:09:30.246Z,15.12
2022-11-15T12:10:30.256Z,15.16
2022-11-15T12:11:30.282Z,15.13
2022-11-15T12:12:30.314Z,15.15
2022-11-15T12:13:30.387Z,15.18
2022-11-15T12:14:30.364Z,15.13
2022-11-15T12:15:30.398Z,15.26
2022-11-15T12:16:30.419Z,15.30
2022-11-15T12:17:30.448Z,15.35
2022-11-15T12:18:30.855Z,15.38
2022-11-15T12:19:30.504Z,15.37
2022-11-15T12:20:30.530Z,15.33
2022-11-15T12:21:30.559Z,15.33
2022-11-15T12:22:30.585Z,15.43
2022-11-15T12:23:30.613Z,15.38
2022-11-15T12:24:30.640Z,15.45
2022-11-15T12:25:30.690Z,15.37
2022-11-15T12:26:30.709Z,15.41
2022-11-15T12:27:30.725Z,15.41
2022-11-15T12:28:31.164Z,15.40
2022-11-15T12:29:30.780Z,15.47
2022-11-15T12:30:30.806Z,15.45
2022-11-15T12:31:30.834Z,15.43
2022-11-15T12:32:30.861Z,15.49
2022-11-15T12:33:30.891Z,15.47
2022-11-15T12:34:30.917Z,15.43
2022-11-15T12:35:30.947Z,15.52
2022-11-15T12:36:30.972Z,15.51
2022-11-15T12:37:31.002Z,15.55
2022-11-15T12:38:31.530Z,15.60
2022-11-15T12:39:31.059Z,15.45
2022-11-15T12:40:31.087Z,15.45
2022-11-15T12:41:31.156Z,15.45
2022-11-15T12:42:31.139Z,15.45
2022-11-15T12:43:31.169Z,15.51
2022-11-15T12:44:31.199Z,15.47
2022-11-15T12:45:31.224Z,15.49
2022-11-15T12:46:31.251Z,15.44
2022-11-15T12:47:31.283Z,15.47
2022-11-15T12:48:31.683Z,15.45
2022-11-15T12:49:31.338Z,15.49
2022-11-15T12:50:31.364Z,15.41
2022-11-15T12:51:31.408Z,15.43
2022-11-15T12:52:31.418Z,15.59
2022-11-15T12:53:31.449Z,15.52
2022-11-15T12:54:31.476Z,15.53
2022-11-15T12:55:31.504Z,15.59
2022-11-15T12:56:31.560Z,15.58
2022-11-15T12:57:31.582Z,15.63
2022-11-15T12:58:31.832Z,15.53
2022-11-15T12:59:31.617Z,15.67
2022-11-15T13:00:31.642Z,15.58
2022-11-15T13:01:32.061Z,15.63
2022-11-15T13:02:31.702Z,15.67
2022-11-15T13:03:31.728Z,15.67
2022-11-15T13:04:31.757Z,15.55
2022-11-15T13:05:31.784Z,15.56
2022-11-15T13:06:31.810Z,15.45
2022-11-15T13:07:31.899Z,15.43
2022-11-15T13:08:32.220Z,15.45
2022-11-15T13:09:31.897Z,15.41
2022-11-15T13:10:31.922Z,15.41
2022-11-15T13:11:31.951Z,15.44
2022-11-15T13:12:31.981Z,15.40
2022-11-15T13:13:32.029Z,15.41
2022-11-15T13:14:32.034Z,15.40
2022-11-15T13:15:32.360Z,15.43
2022-11-15T13:16:32.090Z,15.43
2022-11-15T13:17:32.121Z,15.40